sensor_id;sensor_type;location;lat;lon;timestamp;temperature;humidity
4637;DHT22;2331;48.806;9.140;2024-02-21T00:00:52;10.00;1.00
4637;DHT22;2331;48.806;9.140;2024-02-21T00:03:19;10.00;1.00
4637;DHT22;2331;48.806;9.140;2024-02-21T00:05:46;10.00;1.00
4637;DHT22;2331;48.806;9.140;2024-02-21T00:08:14;10.00;1.00
4637;DHT22;2331;48.806;9.140;2024-02-21T00:10:41;10.10;1.00
4637;DHT22;2331;48.806;9.140;2024-02-21T00:13:07;10.10;1.00
4637;DHT22;2331;48.806;9.140;2024-02-21T00:15:34;10.10;1.00
4637;DHT22;2331;48.806;9.140;2024-02-21T00:18:01;10.10;1.00
4637;DHT22;2331;48.806;9.140;2024-02-21T00:20:28;10.10;1.00
4637;DHT22;2331;48.806;9.140;2024-02-21T00:22:55;10.10;1.00
4637;DHT22;2331;48.806;9.140;2024-02-21T00:25:23;10.20;1.00
4637;DHT22;2331;48.806;9.140;2024-02-21T00:27:50;10.20;1.00
4637;DHT22;2331;48.806;9.140;2024-02-21T00:30:17;10.20;1.00
4637;DHT22;2331;48.806;9.140;2024-02-21T00:32:44;10.20;1.00
4637;DHT22;2331;48.806;9.140;2024-02-21T00:35:10;10.20;1.00
4637;DHT22;2331;48.806;9.140;2024-02-21T00:37:37;10.10;1.00
4637;DHT22;2331;48.806;9.140;2024-02-21T00:40:05;10.00;1.00
4637;DHT22;2331;48.806;9.140;2024-02-21T00:42:34;10.00;1.00
4637;DHT22;2331;48.806;9.140;2024-02-21T00:45:00;10.00;1.00
4637;DHT22;2331;48.806;9.140;2024-02-21T00:47:27;10.00;1.00
4637;DHT22;2331;48.806;9.140;2024-02-21T00:49:54;9.90;1.00
4637;DHT22;2331;48.806;9.140;2024-02-21T00:52:21;9.90;1.00
4637;DHT22;2331;48.806;9.140;2024-02-21T00:54:48;9.90;1.00
4637;DHT22;2331;48.806;9.140;2024-02-21T00:57:15;9.80;1.00
4637;DHT22;2331;48.806;9.140;2024-02-21T00:59:43;9.90;1.00
4637;DHT22;2331;48.806;9.140;2024-02-21T01:02:10;9.80;1.00
4637;DHT22;2331;48.806;9.140;2024-02-21T01:04:36;9.80;1.00
4637;DHT22;2331;48.806;9.140;2024-02-21T01:07:03;9.80;1.00
4637;DHT22;2331;48.806;9.140;2024-02-21T01:09:30;9.80;1.00
4637;DHT22;2331;48.806;9.140;2024-02-21T01:11:57;9.70;1.00
4637;DHT22;2331;48.806;9.140;2024-02-21T01:14:24;9.80;1.00
4637;DHT22;2331;48.806;9.140;2024-02-21T01:16:52;9.70;1.00
4637;DHT22;2331;48.806;9.140;2024-02-21T01:19:19;9.80;1.00
4637;DHT22;2331;48.806;9.140;2024-02-21T01:21:45;9.80;1.00
4637;DHT22;2331;48.806;9.140;2024-02-21T01:24:12;9.80;1.00
4637;DHT22;2331;48.806;9.140;2024-02-21T01:26:40;9.70;1.00
4637;DHT22;2331;48.806;9.140;2024-02-21T01:29:06;9.80;1.00
4637;DHT22;2331;48.806;9.140;2024-02-21T01:31:33;9.80;1.00
4637;DHT22;2331;48.806;9.140;2024-02-21T01:34:01;9.80;1.00
4637;DHT22;2331;48.806;9.140;2024-02-21T01:36:28;9.80;1.00
4637;DHT22;2331;48.806;9.140;2024-02-21T01:38:55;9.80;1.00
4637;DHT22;2331;48.806;9.140;2024-02-21T01:41:22;9.90;1.00
4637;DHT22;2331;48.806;9.140;2024-02-21T01:43:49;9.80;1.00
4637;DHT22;2331;48.806;9.140;2024-02-21T01:46:15;9.80;1.00
4637;DHT22;2331;48.806;9.140;2024-02-21T01:48:42;9.90;1.00
4637;DHT22;2331;48.806;9.140;2024-02-21T01:51:12;9.90;1.00
4637;DHT22;2331;48.806;9.140;2024-02-21T01:53:43;9.90;1.00
4637;DHT22;2331;48.806;9.140;2024-02-21T01:56:10;9.90;1.00
4637;DHT22;2331;48.806;9.140;2024-02-21T01:58:37;9.90;1.00
4637;DHT22;2331;48.806;9.140;2024-02-21T02:01:05;9.90;1.00
4637;DHT22;2331;48.806;9.140;2024-02-21T02:03:35;9.90;1.00
4637;DHT22;2331;48.806;9.140;2024-02-21T02:06:03;9.90;1.00
4637;DHT22;2331;48.806;9.140;2024-02-21T02:08:32;9.90;1.00
4637;DHT22;2331;48.806;9.140;2024-02-21T02:11:00;9.90;1.00
4637;DHT22;2331;48.806;9.140;2024-02-21T02:13:30;9.90;1.00
4637;DHT22;2331;48.806;9.140;2024-02-21T02:15:56;9.90;1.00
4637;DHT22;2331;48.806;9.140;2024-02-21T02:18:23;9.90;1.00
4637;DHT22;2331;48.806;9.140;2024-02-21T02:20:50;9.90;1.00
4637;DHT22;2331;48.806;9.140;2024-02-21T02:23:22;9.80;1.00
4637;DHT22;2331;48.806;9.140;2024-02-21T02:25:49;9.90;1.00
4637;DHT22;2331;48.806;9.140;2024-02-21T02:28:17;9.90;1.00
4637;DHT22;2331;48.806;9.140;2024-02-21T02:30:44;9.90;1.00
4637;DHT22;2331;48.806;9.140;2024-02-21T02:33:11;9.90;1.00
4637;DHT22;2331;48.806;9.140;2024-02-21T02:35:38;10.00;1.00
4637;DHT22;2331;48.806;9.140;2024-02-21T02:38:05;9.90;1.00
4637;DHT22;2331;48.806;9.140;2024-02-21T02:40:34;9.90;1.00
4637;DHT22;2331;48.806;9.140;2024-02-21T02:43:01;9.90;1.00
4637;DHT22;2331;48.806;9.140;2024-02-21T02:45:28;9.80;1.00
4637;DHT22;2331;48.806;9.140;2024-02-21T02:47:55;9.90;1.00
4637;DHT22;2331;48.806;9.140;2024-02-21T02:50:22;9.90;1.00
4637;DHT22;2331;48.806;9.140;2024-02-21T02:52:49;9.90;1.00
4637;DHT22;2331;48.806;9.140;2024-02-21T02:55:16;9.80;1.00
4637;DHT22;2331;48.806;9.140;2024-02-21T02:57:44;9.80;1.00
4637;DHT22;2331;48.806;9.140;2024-02-21T03:00:12;9.90;1.00
4637;DHT22;2331;48.806;9.140;2024-02-21T03:02:41;10.00;1.00
4637;DHT22;2331;48.806;9.140;2024-02-21T03:05:13;10.00;1.00
4637;DHT22;2331;48.806;9.140;2024-02-21T03:07:40;10.10;1.00
4637;DHT22;2331;48.806;9.140;2024-02-21T03:10:07;10.10;1.00
4637;DHT22;2331;48.806;9.140;2024-02-21T03:12:34;10.10;1.00
4637;DHT22;2331;48.806;9.140;2024-02-21T03:15:03;9.90;1.00
4637;DHT22;2331;48.806;9.140;2024-02-21T03:17:30;9.70;1.00
4637;DHT22;2331;48.806;9.140;2024-02-21T03:19:57;9.80;1.00
4637;DHT22;2331;48.806;9.140;2024-02-21T03:22:24;9.90;1.00
4637;DHT22;2331;48.806;9.140;2024-02-21T03:24:51;10.00;1.00
4637;DHT22;2331;48.806;9.140;2024-02-21T03:27:18;10.00;1.00
4637;DHT22;2331;48.806;9.140;2024-02-21T03:29:44;10.00;1.00
4637;DHT22;2331;48.806;9.140;2024-02-21T03:32:12;10.00;1.00
4637;DHT22;2331;48.806;9.140;2024-02-21T03:34:39;10.10;1.00
4637;DHT22;2331;48.806;9.140;2024-02-21T03:37:06;10.10;1.00
4637;DHT22;2331;48.806;9.140;2024-02-21T03:39:33;10.20;1.00
4637;DHT22;2331;48.806;9.140;2024-02-21T03:42:00;10.20;1.00
4637;DHT22;2331;48.806;9.140;2024-02-21T03:44:30;10.10;1.00
4637;DHT22;2331;48.806;9.140;2024-02-21T03:46:57;10.20;1.00
4637;DHT22;2331;48.806;9.140;2024-02-21T03:49:25;10.20;1.00
4637;DHT22;2331;48.806;9.140;2024-02-21T03:51:52;10.20;1.00
4637;DHT22;2331;48.806;9.140;2024-02-21T03:54:19;10.20;1.00
4637;DHT22;2331;48.806;9.140;2024-02-21T03:56:45;10.20;1.00
4637;DHT22;2331;48.806;9.140;2024-02-21T03:59:14;10.30;1.00
4637;DHT22;2331;48.806;9.140;2024-02-21T04:01:41;10.30;1.00
4637;DHT22;2331;48.806;9.140;2024-02-21T04:04:07;10.30;1.00
4637;DHT22;2331;48.806;9.140;2024-02-21T04:06:36;10.20;1.00
4637;DHT22;2331;48.806;9.140;2024-02-21T04:09:02;10.20;1.00
4637;DHT22;2331;48.806;9.140;2024-02-21T04:11:30;10.30;1.00
4637;DHT22;2331;48.806;9.140;2024-02-21T04:13:56;10.30;1.00
4637;DHT22;2331;48.806;9.140;2024-02-21T04:16:24;10.30;1.00
4637;DHT22;2331;48.806;9.140;2024-02-21T04:18:50;10.30;1.00
4637;DHT22;2331;48.806;9.140;2024-02-21T04:21:17;10.20;1.00
4637;DHT22;2331;48.806;9.140;2024-02-21T04:23:45;10.20;1.00
4637;DHT22;2331;48.806;9.140;2024-02-21T04:26:12;10.10;1.00
4637;DHT22;2331;48.806;9.140;2024-02-21T04:28:39;10.10;1.00
4637;DHT22;2331;48.806;9.140;2024-02-21T04:31:06;10.10;1.00
4637;DHT22;2331;48.806;9.140;2024-02-21T04:33:33;10.00;1.00
4637;DHT22;2331;48.806;9.140;2024-02-21T04:35:59;10.00;1.00
4637;DHT22;2331;48.806;9.140;2024-02-21T04:38:27;10.00;1.00
4637;DHT22;2331;48.806;9.140;2024-02-21T04:40:56;10.10;1.00
4637;DHT22;2331;48.806;9.140;2024-02-21T04:43:24;10.10;1.00
4637;DHT22;2331;48.806;9.140;2024-02-21T04:45:50;10.10;1.00
4637;DHT22;2331;48.806;9.140;2024-02-21T04:48:19;10.10;1.00
4637;DHT22;2331;48.806;9.140;2024-02-21T04:50:45;10.10;1.00
4637;DHT22;2331;48.806;9.140;2024-02-21T04:53:12;10.10;1.00
4637;DHT22;2331;48.806;9.140;2024-02-21T04:55:39;10.10;1.00
4637;DHT22;2331;48.806;9.140;2024-02-21T04:58:08;10.10;1.00
4637;DHT22;2331;48.806;9.140;2024-02-21T05:00:34;10.20;1.00
4637;DHT22;2331;48.806;9.140;2024-02-21T05:03:01;10.10;1.00
4637;DHT22;2331;48.806;9.140;2024-02-21T05:05:28;10.10;1.00
4637;DHT22;2331;48.806;9.140;2024-02-21T05:07:55;10.10;1.00
4637;DHT22;2331;48.806;9.140;2024-02-21T05:10:24;10.10;1.00
4637;DHT22;2331;48.806;9.140;2024-02-21T05:12:51;10.00;1.00
4637;DHT22;2331;48.806;9.140;2024-02-21T05:15:19;10.10;1.00
4637;DHT22;2331;48.806;9.140;2024-02-21T05:17:46;10.00;1.00
4637;DHT22;2331;48.806;9.140;2024-02-21T05:20:13;9.90;1.00
4637;DHT22;2331;48.806;9.140;2024-02-21T05:22:39;9.90;1.00
4637;DHT22;2331;48.806;9.140;2024-02-21T05:25:07;9.80;1.00
4637;DHT22;2331;48.806;9.140;2024-02-21T05:27:34;9.80;1.00
4637;DHT22;2331;48.806;9.140;2024-02-21T05:30:03;9.70;1.00
4637;DHT22;2331;48.806;9.140;2024-02-21T05:32:31;9.70;1.00
4637;DHT22;2331;48.806;9.140;2024-02-21T05:34:58;9.70;1.00
4637;DHT22;2331;48.806;9.140;2024-02-21T05:37:24;9.60;1.00
4637;DHT22;2331;48.806;9.140;2024-02-21T05:39:51;9.50;1.00
4637;DHT22;2331;48.806;9.140;2024-02-21T05:42:18;9.50;1.00
4637;DHT22;2331;48.806;9.140;2024-02-21T05:44:45;9.40;1.00
4637;DHT22;2331;48.806;9.140;2024-02-21T05:47:12;9.30;1.00
4637;DHT22;2331;48.806;9.140;2024-02-21T05:49:42;9.20;1.00
4637;DHT22;2331;48.806;9.140;2024-02-21T05:52:08;9.20;1.00
4637;DHT22;2331;48.806;9.140;2024-02-21T05:54:37;9.20;1.00
4637;DHT22;2331;48.806;9.140;2024-02-21T05:57:05;9.20;1.00
4637;DHT22;2331;48.806;9.140;2024-02-21T05:59:32;9.20;1.00
4637;DHT22;2331;48.806;9.140;2024-02-21T06:02:00;9.20;1.00
4637;DHT22;2331;48.806;9.140;2024-02-21T06:04:29;9.10;1.00
4637;DHT22;2331;48.806;9.140;2024-02-21T06:06:57;9.10;1.00
4637;DHT22;2331;48.806;9.140;2024-02-21T06:09:24;9.10;1.00
4637;DHT22;2331;48.806;9.140;2024-02-21T06:11:51;9.00;1.00
4637;DHT22;2331;48.806;9.140;2024-02-21T06:14:17;9.00;1.00
4637;DHT22;2331;48.806;9.140;2024-02-21T06:16:44;9.00;1.00
4637;DHT22;2331;48.806;9.140;2024-02-21T06:19:11;9.00;1.00
4637;DHT22;2331;48.806;9.140;2024-02-21T06:21:40;9.00;1.00
4637;DHT22;2331;48.806;9.140;2024-02-21T06:24:08;8.90;1.00
4637;DHT22;2331;48.806;9.140;2024-02-21T06:26:34;8.90;1.00
4637;DHT22;2331;48.806;9.140;2024-02-21T06:29:01;8.90;1.00
4637;DHT22;2331;48.806;9.140;2024-02-21T06:31:28;9.00;1.00
4637;DHT22;2331;48.806;9.140;2024-02-21T06:33:59;8.90;1.00
4637;DHT22;2331;48.806;9.140;2024-02-21T06:36:26;8.90;1.00
4637;DHT22;2331;48.806;9.140;2024-02-21T06:38:53;9.00;1.00
4637;DHT22;2331;48.806;9.140;2024-02-21T06:41:21;9.00;1.00
4637;DHT22;2331;48.806;9.140;2024-02-21T06:43:48;9.10;1.00
4637;DHT22;2331;48.806;9.140;2024-02-21T06:46:23;9.10;1.00
4637;DHT22;2331;48.806;9.140;2024-02-21T06:48:50;9.20;1.00
4637;DHT22;2331;48.806;9.140;2024-02-21T06:51:17;9.20;1.00
4637;DHT22;2331;48.806;9.140;2024-02-21T06:53:44;9.20;1.00
4637;DHT22;2331;48.806;9.140;2024-02-21T06:56:11;9.30;1.00
4637;DHT22;2331;48.806;9.140;2024-02-21T06:58:39;9.30;1.00
4637;DHT22;2331;48.806;9.140;2024-02-21T07:01:06;9.20;1.00
4637;DHT22;2331;48.806;9.140;2024-02-21T07:03:33;9.20;1.00
4637;DHT22;2331;48.806;9.140;2024-02-21T07:06:00;9.20;1.00
4637;DHT22;2331;48.806;9.140;2024-02-21T07:08:27;9.10;1.00
4637;DHT22;2331;48.806;9.140;2024-02-21T07:10:54;9.10;1.00
4637;DHT22;2331;48.806;9.140;2024-02-21T07:13:21;9.10;1.00
4637;DHT22;2331;48.806;9.140;2024-02-21T07:15:49;9.00;1.00
4637;DHT22;2331;48.806;9.140;2024-02-21T07:18:16;9.00;1.00
4637;DHT22;2331;48.806;9.140;2024-02-21T07:20:43;9.00;1.00
4637;DHT22;2331;48.806;9.140;2024-02-21T07:23:10;9.00;1.00
4637;DHT22;2331;48.806;9.140;2024-02-21T07:25:37;9.00;1.00
4637;DHT22;2331;48.806;9.140;2024-02-21T07:28:04;9.10;1.00
4637;DHT22;2331;48.806;9.140;2024-02-21T07:30:31;9.10;1.00
4637;DHT22;2331;48.806;9.140;2024-02-21T07:32:59;9.00;1.00
4637;DHT22;2331;48.806;9.140;2024-02-21T07:35:26;9.10;1.00
4637;DHT22;2331;48.806;9.140;2024-02-21T07:37:53;9.10;1.00
4637;DHT22;2331;48.806;9.140;2024-02-21T07:40:19;9.10;1.00
4637;DHT22;2331;48.806;9.140;2024-02-21T07:42:46;9.20;1.00
4637;DHT22;2331;48.806;9.140;2024-02-21T07:45:13;9.20;1.00
4637;DHT22;2331;48.806;9.140;2024-02-21T07:47:39;9.20;1.00
4637;DHT22;2331;48.806;9.140;2024-02-21T07:50:08;9.30;1.00
4637;DHT22;2331;48.806;9.140;2024-02-21T07:52:35;9.40;1.00
4637;DHT22;2331;48.806;9.140;2024-02-21T07:55:02;9.40;1.00
4637;DHT22;2331;48.806;9.140;2024-02-21T07:57:29;9.50;1.00
4637;DHT22;2331;48.806;9.140;2024-02-21T07:59:55;9.50;1.00
4637;DHT22;2331;48.806;9.140;2024-02-21T08:02:22;9.60;1.00
4637;DHT22;2331;48.806;9.140;2024-02-21T08:04:49;9.50;1.00
4637;DHT22;2331;48.806;9.140;2024-02-21T08:07:17;9.50;1.00
4637;DHT22;2331;48.806;9.140;2024-02-21T08:09:43;9.60;1.00
4637;DHT22;2331;48.806;9.140;2024-02-21T08:12:10;9.60;1.00
4637;DHT22;2331;48.806;9.140;2024-02-21T08:14:37;9.70;1.00
4637;DHT22;2331;48.806;9.140;2024-02-21T08:17:04;9.70;1.00
4637;DHT22;2331;48.806;9.140;2024-02-21T08:19:30;9.80;1.00
4637;DHT22;2331;48.806;9.140;2024-02-21T08:21:57;9.80;1.00
4637;DHT22;2331;48.806;9.140;2024-02-21T08:24:25;9.90;1.00
4637;DHT22;2331;48.806;9.140;2024-02-21T08:26:52;9.90;1.00
4637;DHT22;2331;48.806;9.140;2024-02-21T08:29:18;10.00;1.00
4637;DHT22;2331;48.806;9.140;2024-02-21T08:31:45;10.10;1.00
4637;DHT22;2331;48.806;9.140;2024-02-21T08:34:12;10.10;1.00
4637;DHT22;2331;48.806;9.140;2024-02-21T08:36:39;10.20;1.00
4637;DHT22;2331;48.806;9.140;2024-02-21T08:39:05;10.20;1.00
4637;DHT22;2331;48.806;9.140;2024-02-21T08:41:34;10.30;1.00
4637;DHT22;2331;48.806;9.140;2024-02-21T08:44:01;10.20;1.00
4637;DHT22;2331;48.806;9.140;2024-02-21T08:46:28;10.20;1.00
4637;DHT22;2331;48.806;9.140;2024-02-21T08:48:55;10.30;1.00
4637;DHT22;2331;48.806;9.140;2024-02-21T08:51:22;10.40;1.00
4637;DHT22;2331;48.806;9.140;2024-02-21T08:53:49;10.40;1.00
4637;DHT22;2331;48.806;9.140;2024-02-21T08:56:15;10.40;1.00
4637;DHT22;2331;48.806;9.140;2024-02-21T08:58:44;10.40;1.00
4637;DHT22;2331;48.806;9.140;2024-02-21T09:01:11;10.50;1.00
4637;DHT22;2331;48.806;9.140;2024-02-21T09:03:38;10.40;1.00
4637;DHT22;2331;48.806;9.140;2024-02-21T09:06:05;10.50;1.00
4637;DHT22;2331;48.806;9.140;2024-02-21T09:08:32;10.50;1.00
4637;DHT22;2331;48.806;9.140;2024-02-21T09:10:59;10.50;1.00
4637;DHT22;2331;48.806;9.140;2024-02-21T09:13:26;10.60;1.00
4637;DHT22;2331;48.806;9.140;2024-02-21T09:15:54;10.60;1.00
4637;DHT22;2331;48.806;9.140;2024-02-21T09:18:21;10.60;1.00
4637;DHT22;2331;48.806;9.140;2024-02-21T09:20:48;10.70;1.00
4637;DHT22;2331;48.806;9.140;2024-02-21T09:23:14;10.80;1.00
4637;DHT22;2331;48.806;9.140;2024-02-21T09:25:41;10.80;1.00
4637;DHT22;2331;48.806;9.140;2024-02-21T09:28:08;10.90;1.00
4637;DHT22;2331;48.806;9.140;2024-02-21T09:30:35;11.00;1.00
4637;DHT22;2331;48.806;9.140;2024-02-21T09:33:05;11.00;1.00
4637;DHT22;2331;48.806;9.140;2024-02-21T09:35:32;11.00;1.00
4637;DHT22;2331;48.806;9.140;2024-02-21T09:37:59;11.10;1.00
4637;DHT22;2331;48.806;9.140;2024-02-21T09:40:26;11.10;1.00
4637;DHT22;2331;48.806;9.140;2024-02-21T09:43:02;11.20;1.00
4637;DHT22;2331;48.806;9.140;2024-02-21T09:45:30;11.30;1.00
4637;DHT22;2331;48.806;9.140;2024-02-21T09:48:14;11.30;1.00
4637;DHT22;2331;48.806;9.140;2024-02-21T09:50:46;11.30;1.00
4637;DHT22;2331;48.806;9.140;2024-02-21T09:53:14;11.40;1.00
4637;DHT22;2331;48.806;9.140;2024-02-21T09:55:43;11.50;1.00
4637;DHT22;2331;48.806;9.140;2024-02-21T09:58:10;11.50;1.00
4637;DHT22;2331;48.806;9.140;2024-02-21T10:00:37;11.50;1.00
4637;DHT22;2331;48.806;9.140;2024-02-21T10:03:06;11.70;1.00
4637;DHT22;2331;48.806;9.140;2024-02-21T10:05:35;11.70;1.00
4637;DHT22;2331;48.806;9.140;2024-02-21T10:08:02;11.80;1.00
4637;DHT22;2331;48.806;9.140;2024-02-21T10:10:29;11.90;1.00
4637;DHT22;2331;48.806;9.140;2024-02-21T10:12:56;12.00;1.00
4637;DHT22;2331;48.806;9.140;2024-02-21T10:15:24;12.10;1.00
4637;DHT22;2331;48.806;9.140;2024-02-21T10:17:58;12.20;1.00
4637;DHT22;2331;48.806;9.140;2024-02-21T10:20:27;12.20;1.00
4637;DHT22;2331;48.806;9.140;2024-02-21T10:23:01;12.30;1.00
4637;DHT22;2331;48.806;9.140;2024-02-21T10:25:28;12.40;1.00
4637;DHT22;2331;48.806;9.140;2024-02-21T10:27:56;12.40;1.00
4637;DHT22;2331;48.806;9.140;2024-02-21T10:30:23;12.50;1.00
4637;DHT22;2331;48.806;9.140;2024-02-21T10:32:50;12.60;1.00
4637;DHT22;2331;48.806;9.140;2024-02-21T10:35:27;12.70;1.00
4637;DHT22;2331;48.806;9.140;2024-02-21T10:37:55;12.70;1.00
4637;DHT22;2331;48.806;9.140;2024-02-21T10:40:23;12.70;1.00
4637;DHT22;2331;48.806;9.140;2024-02-21T10:42:57;12.70;1.00
4637;DHT22;2331;48.806;9.140;2024-02-21T10:45:29;12.70;1.00
4637;DHT22;2331;48.806;9.140;2024-02-21T10:48:10;12.80;1.00
4637;DHT22;2331;48.806;9.140;2024-02-21T10:50:52;12.80;1.00
4637;DHT22;2331;48.806;9.140;2024-02-21T10:53:24;12.90;1.00
4637;DHT22;2331;48.806;9.140;2024-02-21T10:56:00;12.90;1.00
4637;DHT22;2331;48.806;9.140;2024-02-21T10:58:33;13.00;1.00
4637;DHT22;2331;48.806;9.140;2024-02-21T11:01:00;13.00;1.00
4637;DHT22;2331;48.806;9.140;2024-02-21T11:03:27;13.00;1.00
4637;DHT22;2331;48.806;9.140;2024-02-21T11:05:55;13.00;1.00
4637;DHT22;2331;48.806;9.140;2024-02-21T11:08:22;12.90;1.00
4637;DHT22;2331;48.806;9.140;2024-02-21T11:10:50;12.80;1.00
4637;DHT22;2331;48.806;9.140;2024-02-21T11:13:30;13.00;1.00
4637;DHT22;2331;48.806;9.140;2024-02-21T11:16:06;13.10;1.00
4637;DHT22;2331;48.806;9.140;2024-02-21T11:18:34;13.20;1.00
4637;DHT22;2331;48.806;9.140;2024-02-21T11:21:02;13.30;1.00
4637;DHT22;2331;48.806;9.140;2024-02-21T11:23:30;13.10;1.00
4637;DHT22;2331;48.806;9.140;2024-02-21T11:26:04;13.20;1.00
4637;DHT22;2331;48.806;9.140;2024-02-21T11:28:31;13.40;1.00
4637;DHT22;2331;48.806;9.140;2024-02-21T11:31:06;13.40;1.00
4637;DHT22;2331;48.806;9.140;2024-02-21T11:33:34;13.50;1.00
4637;DHT22;2331;48.806;9.140;2024-02-21T11:36:02;13.60;1.00
4637;DHT22;2331;48.806;9.140;2024-02-21T11:38:30;13.60;1.00
4637;DHT22;2331;48.806;9.140;2024-02-21T11:40:56;13.70;1.00
4637;DHT22;2331;48.806;9.140;2024-02-21T11:43:23;13.70;1.00
4637;DHT22;2331;48.806;9.140;2024-02-21T11:45:50;13.80;1.00
4637;DHT22;2331;48.806;9.140;2024-02-21T11:48:24;13.70;1.00
4637;DHT22;2331;48.806;9.140;2024-02-21T11:50:54;13.80;1.00
4637;DHT22;2331;48.806;9.140;2024-02-21T11:53:23;13.70;1.00
4637;DHT22;2331;48.806;9.140;2024-02-21T11:55:50;13.70;1.00
4637;DHT22;2331;48.806;9.140;2024-02-21T11:58:17;13.70;1.00
4637;DHT22;2331;48.806;9.140;2024-02-21T12:00:43;13.70;1.00
4637;DHT22;2331;48.806;9.140;2024-02-21T12:03:10;13.90;1.00
4637;DHT22;2331;48.806;9.140;2024-02-21T12:05:37;14.00;1.00
4637;DHT22;2331;48.806;9.140;2024-02-21T12:08:04;14.00;1.00
4637;DHT22;2331;48.806;9.140;2024-02-21T12:10:34;14.10;1.00
4637;DHT22;2331;48.806;9.140;2024-02-21T12:13:07;14.10;1.00
4637;DHT22;2331;48.806;9.140;2024-02-21T12:15:34;14.20;1.00
4637;DHT22;2331;48.806;9.140;2024-02-21T12:18:01;14.30;1.00
4637;DHT22;2331;48.806;9.140;2024-02-21T12:20:28;14.40;1.00
4637;DHT22;2331;48.806;9.140;2024-02-21T12:22:55;14.30;1.00
4637;DHT22;2331;48.806;9.140;2024-02-21T12:25:22;14.20;1.00
4637;DHT22;2331;48.806;9.140;2024-02-21T12:27:52;14.00;1.00
4637;DHT22;2331;48.806;9.140;2024-02-21T12:30:19;14.10;1.00
4637;DHT22;2331;48.806;9.140;2024-02-21T12:32:46;14.10;1.00
4637;DHT22;2331;48.806;9.140;2024-02-21T12:35:13;14.20;1.00
4637;DHT22;2331;48.806;9.140;2024-02-21T12:37:40;14.40;1.00
4637;DHT22;2331;48.806;9.140;2024-02-21T12:40:09;14.40;1.00
4637;DHT22;2331;48.806;9.140;2024-02-21T12:42:37;14.30;1.00
4637;DHT22;2331;48.806;9.140;2024-02-21T12:45:05;14.30;1.00
4637;DHT22;2331;48.806;9.140;2024-02-21T12:47:33;14.40;1.00
4637;DHT22;2331;48.806;9.140;2024-02-21T12:49:59;14.50;1.00
4637;DHT22;2331;48.806;9.140;2024-02-21T12:52:28;14.50;1.00
4637;DHT22;2331;48.806;9.140;2024-02-21T12:54:55;14.60;1.00
4637;DHT22;2331;48.806;9.140;2024-02-21T12:57:24;14.60;1.00
4637;DHT22;2331;48.806;9.140;2024-02-21T12:59:51;14.80;1.00
4637;DHT22;2331;48.806;9.140;2024-02-21T13:02:19;14.80;1.00
4637;DHT22;2331;48.806;9.140;2024-02-21T13:04:46;14.80;1.00
4637;DHT22;2331;48.806;9.140;2024-02-21T13:07:13;14.80;1.00
4637;DHT22;2331;48.806;9.140;2024-02-21T13:09:39;14.80;1.00
4637;DHT22;2331;48.806;9.140;2024-02-21T13:12:07;14.80;1.00
4637;DHT22;2331;48.806;9.140;2024-02-21T13:14:34;14.60;1.00
4637;DHT22;2331;48.806;9.140;2024-02-21T13:17:02;14.70;1.00
4637;DHT22;2331;48.806;9.140;2024-02-21T13:19:30;14.80;1.00
4637;DHT22;2331;48.806;9.140;2024-02-21T13:21:57;14.80;1.00
4637;DHT22;2331;48.806;9.140;2024-02-21T13:24:23;14.80;1.00
4637;DHT22;2331;48.806;9.140;2024-02-21T13:26:50;14.90;1.00
4637;DHT22;2331;48.806;9.140;2024-02-21T13:29:16;14.90;1.00
4637;DHT22;2331;48.806;9.140;2024-02-21T13:31:44;15.00;1.00
4637;DHT22;2331;48.806;9.140;2024-02-21T13:34:11;15.10;1.00
4637;DHT22;2331;48.806;9.140;2024-02-21T13:36:39;15.10;1.00
4637;DHT22;2331;48.806;9.140;2024-02-21T13:39:05;15.10;1.00
4637;DHT22;2331;48.806;9.140;2024-02-21T13:41:33;15.20;1.00
4637;DHT22;2331;48.806;9.140;2024-02-21T13:44:00;15.30;1.00
4637;DHT22;2331;48.806;9.140;2024-02-21T13:46:27;15.40;1.00
4637;DHT22;2331;48.806;9.140;2024-02-21T13:49:02;15.30;1.00
4637;DHT22;2331;48.806;9.140;2024-02-21T13:51:30;15.30;1.00
4637;DHT22;2331;48.806;9.140;2024-02-21T13:53:58;15.30;1.00
4637;DHT22;2331;48.806;9.140;2024-02-21T13:56:25;15.40;1.00
4637;DHT22;2331;48.806;9.140;2024-02-21T13:58:52;15.40;1.00
4637;DHT22;2331;48.806;9.140;2024-02-21T14:01:18;15.50;1.00
4637;DHT22;2331;48.806;9.140;2024-02-21T14:03:45;15.50;1.00
4637;DHT22;2331;48.806;9.140;2024-02-21T14:06:12;15.40;1.00
4637;DHT22;2331;48.806;9.140;2024-02-21T14:08:39;15.40;1.00
4637;DHT22;2331;48.806;9.140;2024-02-21T14:11:07;15.40;1.00
4637;DHT22;2331;48.806;9.140;2024-02-21T14:13:33;15.40;1.00
4637;DHT22;2331;48.806;9.140;2024-02-21T14:16:00;15.30;1.00
4637;DHT22;2331;48.806;9.140;2024-02-21T14:18:27;15.10;1.00
4637;DHT22;2331;48.806;9.140;2024-02-21T14:20:53;15.30;1.00
4637;DHT22;2331;48.806;9.140;2024-02-21T14:23:20;15.30;1.00
4637;DHT22;2331;48.806;9.140;2024-02-21T14:25:47;15.30;1.00
4637;DHT22;2331;48.806;9.140;2024-02-21T14:28:15;15.30;1.00
4637;DHT22;2331;48.806;9.140;2024-02-21T14:30:43;15.30;1.00
4637;DHT22;2331;48.806;9.140;2024-02-21T14:33:10;15.30;1.00
4637;DHT22;2331;48.806;9.140;2024-02-21T14:35:36;15.40;1.00
4637;DHT22;2331;48.806;9.140;2024-02-21T14:38:03;15.30;1.00
4637;DHT22;2331;48.806;9.140;2024-02-21T14:40:30;15.30;1.00
4637;DHT22;2331;48.806;9.140;2024-02-21T14:42:59;15.30;1.00
4637;DHT22;2331;48.806;9.140;2024-02-21T14:45:27;15.30;1.00
4637;DHT22;2331;48.806;9.140;2024-02-21T14:47:54;15.30;1.00
4637;DHT22;2331;48.806;9.140;2024-02-21T14:50:21;15.30;1.00
4637;DHT22;2331;48.806;9.140;2024-02-21T14:52:48;15.20;1.00
4637;DHT22;2331;48.806;9.140;2024-02-21T14:55:15;15.40;1.00
4637;DHT22;2331;48.806;9.140;2024-02-21T14:57:42;15.30;1.00
4637;DHT22;2331;48.806;9.140;2024-02-21T15:00:10;15.40;1.00
4637;DHT22;2331;48.806;9.140;2024-02-21T15:02:38;15.40;1.00
4637;DHT22;2331;48.806;9.140;2024-02-21T15:05:05;15.40;1.00
4637;DHT22;2331;48.806;9.140;2024-02-21T15:07:32;15.40;1.00
4637;DHT22;2331;48.806;9.140;2024-02-21T15:09:59;15.40;1.00
4637;DHT22;2331;48.806;9.140;2024-02-21T15:12:26;15.40;1.00
4637;DHT22;2331;48.806;9.140;2024-02-21T15:14:52;15.30;1.00
4637;DHT22;2331;48.806;9.140;2024-02-21T15:17:19;15.30;1.00
4637;DHT22;2331;48.806;9.140;2024-02-21T15:19:47;15.30;1.00
4637;DHT22;2331;48.806;9.140;2024-02-21T15:22:15;15.30;1.00
4637;DHT22;2331;48.806;9.140;2024-02-21T15:24:43;15.40;1.00
4637;DHT22;2331;48.806;9.140;2024-02-21T15:27:11;15.40;1.00
4637;DHT22;2331;48.806;9.140;2024-02-21T15:29:38;15.30;1.00
4637;DHT22;2331;48.806;9.140;2024-02-21T15:32:05;15.30;1.00
4637;DHT22;2331;48.806;9.140;2024-02-21T15:34:32;15.30;1.00
4637;DHT22;2331;48.806;9.140;2024-02-21T15:37:00;15.30;1.00
4637;DHT22;2331;48.806;9.140;2024-02-21T15:39:27;15.30;1.00
4637;DHT22;2331;48.806;9.140;2024-02-21T15:41:54;15.30;1.00
4637;DHT22;2331;48.806;9.140;2024-02-21T15:44:21;15.30;1.00
4637;DHT22;2331;48.806;9.140;2024-02-21T15:46:48;15.40;1.00
4637;DHT22;2331;48.806;9.140;2024-02-21T15:49:16;15.40;1.00
4637;DHT22;2331;48.806;9.140;2024-02-21T15:51:43;15.50;1.00
4637;DHT22;2331;48.806;9.140;2024-02-21T15:54:11;15.50;1.00
4637;DHT22;2331;48.806;9.140;2024-02-21T15:56:37;15.40;1.00
4637;DHT22;2331;48.806;9.140;2024-02-21T15:59:04;15.30;1.00
4637;DHT22;2331;48.806;9.140;2024-02-21T16:01:31;15.30;1.00
4637;DHT22;2331;48.806;9.140;2024-02-21T16:03:58;15.30;1.00
4637;DHT22;2331;48.806;9.140;2024-02-21T16:06:25;15.30;1.00
4637;DHT22;2331;48.806;9.140;2024-02-21T16:08:52;15.30;1.00
4637;DHT22;2331;48.806;9.140;2024-02-21T16:11:20;15.30;1.00
4637;DHT22;2331;48.806;9.140;2024-02-21T16:13:47;15.30;1.00
4637;DHT22;2331;48.806;9.140;2024-02-21T16:16:15;15.30;1.00
4637;DHT22;2331;48.806;9.140;2024-02-21T16:18:42;15.30;1.00
4637;DHT22;2331;48.806;9.140;2024-02-21T16:21:08;15.30;1.00
4637;DHT22;2331;48.806;9.140;2024-02-21T16:23:35;15.30;1.00
4637;DHT22;2331;48.806;9.140;2024-02-21T16:26:02;15.30;1.00